Time;durP1;ratioP1;P1;durP2;ratioP2;P2;SDS_P1;SDS_P2;PMS_P1;PMS_P2;Temp;Humidity;BMP_temperature;BMP_pressure;BME280_temperature;BME280_humidity;BME280_pressure;Samples;Min_cycle;Max_cycle;Signal;HPM_P1;HPM_P2
2024/01/17 00:01:57;;;;;;;3.03;2.83;;;2.00;99.90;;;;;;5015534;28;20330;-90
2024/01/17 00:04:24;;;;;;;4.33;2.13;;;2.00;99.90;;;;;;5032577;28;20183;-89
2024/01/17 00:06:50;;;;;;;1.83;1.63;;;2.00;99.90;;;;;;4999379;28;20266;-89
2024/01/17 00:09:16;;;;;;;0.37;0.37;;;1.90;99.90;;;;;;4999191;28;20203;-88
2024/01/17 00:11:42;;;;;;;2.63;2.50;;;1.90;99.90;;;;;;4999615;28;20187;-87
2024/01/17 00:14:11;;;;;;;2.10;0.90;;;1.90;99.90;;;;;;5015938;28;20214;-88
2024/01/17 00:16:37;;;;;;;1.03;1.03;;;1.90;99.90;;;;;;5000724;28;20202;-88
2024/01/17 00:19:03;;;;;;;2.37;2.23;;;1.90;99.90;;;;;;5016192;28;20614;-87
2024/01/17 00:21:29;;;;;;;2.57;2.37;;;2.00;99.90;;;;;;5016209;28;20182;-89
2024/01/17 00:23:58;;;;;;;1.30;1.27;;;2.00;99.90;;;;;;5016054;28;20662;-88
2024/01/17 00:26:24;;;;;;;0.73;0.73;;;2.00;99.90;;;;;;5015769;28;20176;-89
2024/01/17 00:28:50;;;;;;;1.03;1.03;;;2.00;99.90;;;;;;4999795;28;20186;-88
2024/01/17 00:31:18;;;;;;;0.57;0.57;;;2.00;99.90;;;;;;4999579;28;20218;-90
2024/01/17 00:33:47;;;;;;;1.50;1.40;;;2.00;99.90;;;;;;4999626;28;20230;-88
2024/01/17 00:36:14;;;;;;;0.87;0.87;;;2.00;99.90;;;;;;5015580;28;20566;-90
2024/01/17 00:38:40;;;;;;;0.70;0.70;;;1.90;99.90;;;;;;4999897;28;20226;-90
2024/01/17 00:41:08;;;;;;;0.90;0.87;;;1.90;99.90;;;;;;4998747;28;20187;-90
2024/01/17 00:43:34;;;;;;;1.43;1.40;;;1.90;99.90;;;;;;5015569;28;20188;-90
2024/01/17 00:46:00;;;;;;;1.80;1.67;;;2.00;99.90;;;;;;4998322;28;20551;-89
2024/01/17 00:48:26;;;;;;;0.80;0.80;;;1.90;99.90;;;;;;5014871;28;20242;-91
2024/01/17 00:50:52;;;;;;;0.73;0.70;;;1.90;99.90;;;;;;5015410;28;20266;-90
2024/01/17 00:53:17;;;;;;;1.03;1.03;;;1.90;99.90;;;;;;4998567;28;20242;-88
2024/01/17 00:55:46;;;;;;;0.93;0.90;;;1.90;99.90;;;;;;5015012;28;20183;-89
2024/01/17 00:58:12;;;;;;;1.57;1.47;;;1.90;99.90;;;;;;5015661;28;20215;-88
2024/01/17 01:00:39;;;;;;;1.70;1.57;;;1.80;99.90;;;;;;4998480;28;20520;-88
2024/01/17 01:03:04;;;;;;;1.87;1.77;;;1.90;99.90;;;;;;5014616;28;20606;-87
2024/01/17 01:05:30;;;;;;;1.50;1.40;;;1.80;99.90;;;;;;5015160;28;20183;-89
2024/01/17 01:07:56;;;;;;;1.77;1.67;;;1.80;99.90;;;;;;4999170;28;20588;-90
2024/01/17 01:10:22;;;;;;;1.87;1.80;;;1.70;99.90;;;;;;4998490;28;20178;-89
2024/01/17 01:12:48;;;;;;;0.87;0.87;;;1.80;99.90;;;;;;5014708;28;20186;-89
2024/01/17 01:15:13;;;;;;;1.00;1.00;;;1.80;99.90;;;;;;4998804;28;20670;-86
2024/01/17 01:17:39;;;;;;;1.87;1.80;;;1.80;99.90;;;;;;4998018;28;20211;-88
2024/01/17 01:20:07;;;;;;;1.70;1.63;;;1.80;99.90;;;;;;4998564;28;20745;-90
2024/01/17 01:22:33;;;;;;;0.70;0.70;;;1.80;99.90;;;;;;4998554;28;20179;-91
2024/01/17 01:24:59;;;;;;;1.97;1.33;;;1.80;99.90;;;;;;4998269;28;20180;-89
2024/01/17 01:27:25;;;;;;;3.77;1.50;;;1.90;99.90;;;;;;4998113;28;20191;-89
2024/01/17 01:29:50;;;;;;;0.90;0.90;;;1.80;99.90;;;;;;5014447;28;20276;-90
2024/01/17 01:32:16;;;;;;;2.13;2.03;;;1.90;99.90;;;;;;4998706;28;20183;-90
2024/01/17 01:34:44;;;;;;;2.13;1.93;;;1.90;99.90;;;;;;5015140;28;20688;-91
2024/01/17 01:37:12;;;;;;;1.87;1.83;;;1.80;99.90;;;;;;4998154;28;20184;-91
2024/01/17 01:39:38;;;;;;;0.73;0.73;;;1.80;99.90;;;;;;5014891;28;20211;-89
2024/01/17 01:42:04;;;;;;;1.10;1.10;;;1.80;99.90;;;;;;4997637;28;20198;-89
2024/01/17 01:44:30;;;;;;;2.77;1.20;;;1.90;99.90;;;;;;4998421;28;20229;-89
2024/01/17 01:46:58;;;;;;;1.77;1.67;;;1.80;99.90;;;;;;4997949;28;20180;-91
2024/01/17 01:49:24;;;;;;;0.60;0.60;;;1.80;99.90;;;;;;5014056;28;20718;-88
2024/01/17 01:51:51;;;;;;;0.83;0.83;;;1.90;99.90;;;;;;5013987;28;20188;-89
2024/01/17 01:54:19;;;;;;;0.67;0.67;;;1.80;99.90;;;;;;4997683;28;20611;-92
2024/01/17 01:56:46;;;;;;;1.57;1.47;;;1.80;99.90;;;;;;5013828;28;20171;-90
2024/01/17 01:59:15;;;;;;;1.57;1.47;;;1.80;99.90;;;;;;5014657;28;20218;-89
2024/01/17 02:01:43;;;;;;;0.63;0.63;;;1.90;99.90;;;;;;5013939;28;20224;-90
2024/01/17 02:04:10;;;;;;;0.60;0.60;;;1.90;99.90;;;;;;5013781;28;20194;-90
2024/01/17 02:06:36;;;;;;;1.63;1.53;;;1.90;99.90;;;;;;5014253;28;20175;-90
2024/01/17 02:09:02;;;;;;;1.03;1.03;;;1.90;99.90;;;;;;5014840;28;20672;-89
2024/01/17 02:11:32;;;;;;;1.87;1.77;;;1.80;99.90;;;;;;4997359;28;20203;-90
2024/01/17 02:14:01;;;;;;;0.73;0.73;;;1.80;99.90;;;;;;4998464;28;20691;-89
2024/01/17 02:16:27;;;;;;;1.83;1.73;;;1.80;99.90;;;;;;5013789;28;20187;-89
2024/01/17 02:18:53;;;;;;;1.40;1.30;;;1.80;99.90;;;;;;4997503;28;20213;-89
2024/01/17 02:21:19;;;;;;;0.80;0.80;;;1.80;99.90;;;;;;5014116;28;20262;-91
2024/01/17 02:23:52;;;;;;;0.97;0.97;;;1.80;99.90;;;;;;5013169;28;20179;-90
2024/01/17 02:26:19;;;;;;;1.70;1.60;;;1.80;99.90;;;;;;4997199;28;20179;-89
2024/01/17 02:28:45;;;;;;;1.63;1.53;;;1.80;99.90;;;;;;4996971;28;20710;-90
2024/01/17 02:31:12;;;;;;;1.00;0.80;;;1.70;99.90;;;;;;4997812;28;20269;-88
2024/01/17 02:33:39;;;;;;;2.83;2.37;;;1.70;99.90;;;;;;5013236;28;20176;-89
2024/01/17 02:36:10;;;;;;;2.13;1.30;;;1.70;99.90;;;;;;4997272;28;20650;-89
2024/01/17 02:38:36;;;;;;;0.93;0.93;;;1.70;99.90;;;;;;4997374;28;20258;-90
2024/01/17 02:41:09;;;;;;;1.87;1.47;;;1.70;99.90;;;;;;5014070;28;20603;-88
2024/01/17 02:43:43;;;;;;;1.63;1.53;;;1.70;99.90;;;;;;4997965;28;20166;-90
2024/01/17 02:46:14;;;;;;;0.80;0.80;;;1.70;99.90;;;;;;4997276;28;20166;-89
2024/01/17 02:48:40;;;;;;;1.40;1.40;;;1.70;99.90;;;;;;5012854;28;20187;-90
2024/01/17 02:51:09;;;;;;;1.90;1.80;;;1.70;99.90;;;;;;4996307;28;20211;-91
2024/01/17 02:53:35;;;;;;;1.07;1.07;;;1.70;99.90;;;;;;4996536;28;20183;-88
2024/01/17 02:56:01;;;;;;;2.17;1.97;;;1.70;99.90;;;;;;5013058;28;20232;-89
2024/01/17 02:58:27;;;;;;;2.03;1.93;;;1.60;99.90;;;;;;5012530;28;20210;-89
2024/01/17 03:00:53;;;;;;;1.97;1.87;;;1.60;99.90;;;;;;5013185;28;20232;-90
2024/01/17 03:03:19;;;;;;;0.50;0.50;;;1.60;99.90;;;;;;5012769;28;20238;-89
2024/01/17 03:05:47;;;;;;;1.27;1.27;;;1.60;99.90;;;;;;4996474;28;20274;-89
2024/01/17 03:08:13;;;;;;;0.70;0.70;;;1.60;99.90;;;;;;5012880;28;20209;-89
2024/01/17 03:10:39;;;;;;;1.37;1.37;;;1.60;99.90;;;;;;4998331;28;20624;-88
2024/01/17 03:13:05;;;;;;;2.40;1.70;;;1.60;99.90;;;;;;5000257;28;20624;-89
2024/01/17 03:15:32;;;;;;;1.37;1.33;;;1.60;99.90;;;;;;5000393;28;20348;-88
2024/01/17 03:17:58;;;;;;;2.53;1.80;;;1.60;99.90;;;;;;5016403;28;20194;-89
2024/01/17 03:20:23;;;;;;;3.13;2.93;;;1.60;99.90;;;;;;5017061;28;20255;-88
2024/01/17 03:22:52;;;;;;;2.73;2.43;;;1.50;99.90;;;;;;5000946;28;20192;-89
2024/01/17 03:25:18;;;;;;;0.90;0.90;;;1.60;99.90;;;;;;5020888;28;20180;-89
2024/01/17 03:27:44;;;;;;;0.90;0.90;;;1.50;99.90;;;;;;5004952;28;20190;-88
2024/01/17 03:30:12;;;;;;;2.23;2.10;;;1.60;99.90;;;;;;5002008;28;20236;-90
2024/01/17 03:32:43;;;;;;;2.33;2.13;;;1.60;99.90;;;;;;5000779;28;20254;-88
2024/01/17 03:35:09;;;;;;;1.63;1.53;;;1.60;99.90;;;;;;5000682;28;20172;-89
2024/01/17 03:37:36;;;;;;;3.20;3.00;;;1.50;99.90;;;;;;5016391;28;20207;-88
2024/01/17 03:40:02;;;;;;;1.97;1.73;;;1.50;99.90;;;;;;5000368;28;20238;-89
2024/01/17 03:42:30;;;;;;;5.60;2.93;;;1.50;99.90;;;;;;5019453;28;20665;-86
2024/01/17 03:44:56;;;;;;;0.83;0.83;;;1.50;99.90;;;;;;5021424;28;20179;-87
2024/01/17 03:47:22;;;;;;;1.17;1.17;;;1.40;99.90;;;;;;5002693;28;20186;-89
2024/01/17 03:49:48;;;;;;;1.17;1.17;;;1.50;99.90;;;;;;5003687;28;20626;-90
2024/01/17 03:52:14;;;;;;;1.43;1.43;;;1.50;99.90;;;;;;5019332;28;20180;-90
2024/01/17 03:54:40;;;;;;;0.87;0.87;;;1.50;99.90;;;;;;5002587;28;20616;-90
2024/01/17 03:57:05;;;;;;;1.87;1.73;;;1.50;99.90;;;;;;5001522;28;20717;-89
2024/01/17 03:59:31;;;;;;;0.60;0.60;;;1.50;99.90;;;;;;5002152;28;20218;-89
2024/01/17 04:01:57;;;;;;;1.20;1.17;;;1.40;99.90;;;;;;5002139;28;20228;-90
2024/01/17 04:04:23;;;;;;;2.63;1.83;;;1.30;99.90;;;;;;5001423;28;20318;-88
2024/01/17 04:06:49;;;;;;;1.03;1.00;;;1.30;99.90;;;;;;5016977;28;20545;-88
2024/01/17 04:09:15;;;;;;;0.50;0.50;;;1.40;99.90;;;;;;5017178;28;20188;-90
2024/01/17 04:11:40;;;;;;;1.30;1.23;;;1.30;99.90;;;;;;5017010;28;20555;-89
2024/01/17 04:14:09;;;;;;;1.37;1.27;;;1.30;99.90;;;;;;4999489;28;20222;-90
2024/01/17 04:16:36;;;;;;;8.40;2.70;;;1.30;99.90;;;;;;4999643;28;20214;-89
2024/01/17 04:19:02;;;;;;;1.93;1.60;;;1.20;99.90;;;;;;4999710;28;20262;-91
2024/01/17 04:21:27;;;;;;;2.30;2.10;;;1.40;99.90;;;;;;5015117;28;20175;-88
2024/01/17 04:23:53;;;;;;;2.13;2.03;;;1.20;99.90;;;;;;4999229;28;20184;-91
2024/01/17 04:26:24;;;;;;;1.90;1.80;;;1.20;99.90;;;;;;4999365;28;20689;-90
2024/01/17 04:28:51;;;;;;;2.33;2.13;;;1.30;99.90;;;;;;5015465;28;20183;-88
2024/01/17 04:31:30;;;;;;;1.47;1.37;;;1.30;99.90;;;;;;5015609;28;20179;-89
2024/01/17 04:33:57;;;;;;;1.47;1.37;;;1.40;99.90;;;;;;5016484;28;20189;-90
2024/01/17 04:36:27;;;;;;;1.23;1.23;;;1.30;99.90;;;;;;4999161;28;20188;-90
2024/01/17 04:38:53;;;;;;;1.83;1.70;;;1.30;99.90;;;;;;5016373;28;20195;-91
2024/01/17 04:41:20;;;;;;;1.97;1.73;;;1.30;99.90;;;;;;5014870;28;20230;-91
2024/01/17 04:43:46;;;;;;;0.87;0.87;;;1.40;99.90;;;;;;5015353;28;20176;-93
2024/01/17 04:46:13;;;;;;;0.87;0.87;;;1.50;99.90;;;;;;4998507;28;20179;-90
2024/01/17 04:48:43;;;;;;;1.90;1.60;;;1.50;99.90;;;;;;5015048;28;20658;-91
2024/01/17 04:51:10;;;;;;;0.50;0.50;;;1.40;99.90;;;;;;5014910;28;20175;-91
2024/01/17 04:53:42;;;;;;;1.63;0.80;;;1.60;99.90;;;;;;5015604;28;20179;-91
2024/01/17 04:56:09;;;;;;;1.13;1.13;;;1.50;99.90;;;;;;5014118;28;20230;-91
2024/01/17 04:58:36;;;;;;;1.37;1.27;;;1.40;99.90;;;;;;5014425;28;20303;-91
2024/01/17 05:01:06;;;;;;;2.03;1.93;;;1.40;99.90;;;;;;5014735;28;20250;-91
2024/01/17 05:03:32;;;;;;;1.90;1.80;;;1.50;99.90;;;;;;4997911;28;20227;-91
2024/01/17 05:05:59;;;;;;;1.60;1.50;;;1.30;99.90;;;;;;5015317;28;20217;-90
2024/01/17 05:08:25;;;;;;;0.80;0.80;;;1.30;99.90;;;;;;4998343;28;20188;-91
2024/01/17 05:10:50;;;;;;;0.60;0.60;;;1.20;99.90;;;;;;5014539;28;20186;-91
2024/01/17 05:13:16;;;;;;;2.37;2.17;;;1.20;99.90;;;;;;4998312;28;20663;-91
2024/01/17 05:15:42;;;;;;;1.77;1.67;;;1.30;99.90;;;;;;5014289;28;20261;-91
2024/01/17 05:18:10;;;;;;;1.27;1.27;;;1.30;99.90;;;;;;5014374;28;20175;-89
2024/01/17 05:20:37;;;;;;;1.23;1.20;;;1.10;99.90;;;;;;4998002;28;20555;-90
2024/01/17 05:23:03;;;;;;;2.30;2.20;;;1.10;99.90;;;;;;4998288;28;20245;-90
2024/01/17 05:25:30;;;;;;;0.87;0.87;;;1.00;99.90;;;;;;4998841;28;20183;-89
2024/01/17 05:27:56;;;;;;;2.20;2.10;;;1.10;99.90;;;;;;5014083;28;20342;-90
2024/01/17 05:30:25;;;;;;;0.70;0.70;;;1.10;99.90;;;;;;4997942;28;20504;-89
2024/01/17 05:32:52;;;;;;;1.07;1.07;;;1.10;99.90;;;;;;4997835;28;20270;-90
2024/01/17 05:35:18;;;;;;;1.13;1.13;;;1.10;99.90;;;;;;5015106;28;20175;-91
2024/01/17 05:37:44;;;;;;;4.10;2.63;;;1.10;99.90;;;;;;5013986;28;20194;-90
2024/01/17 05:40:12;;;;;;;2.13;1.90;;;1.10;99.90;;;;;;4997666;28;20222;-89
2024/01/17 05:42:39;;;;;;;2.00;1.90;;;1.10;99.90;;;;;;4997918;28;20270;-91
2024/01/17 05:45:07;;;;;;;4.23;1.80;;;1.10;99.90;;;;;;4997627;28;20184;-91
2024/01/17 05:47:35;;;;;;;3.03;2.83;;;1.20;99.90;;;;;;4997959;28;20190;-91
2024/01/17 05:50:03;;;;;;;2.23;1.63;;;1.20;99.90;;;;;;5014126;28;20665;-90
2024/01/17 05:52:30;;;;;;;1.90;1.13;;;1.30;99.90;;;;;;4998610;28;20176;-90
2024/01/17 05:54:55;;;;;;;1.93;1.83;;;1.40;99.90;;;;;;4997979;28;20638;-89
2024/01/17 05:57:21;;;;;;;1.83;1.73;;;1.30;99.90;;;;;;5014141;28;20176;-92
2024/01/17 05:59:50;;;;;;;2.47;2.27;;;1.30;99.90;;;;;;5014195;28;20242;-90
2024/01/17 06:02:17;;;;;;;2.60;2.40;;;1.20;99.90;;;;;;5013403;28;20338;-90
2024/01/17 06:04:43;;;;;;;3.23;1.70;;;1.00;99.90;;;;;;5013974;28;20658;-89
2024/01/17 06:07:09;;;;;;;1.47;1.17;;;1.10;99.90;;;;;;5014395;28;20187;-90
2024/01/17 06:09:35;;;;;;;1.53;1.43;;;1.20;99.90;;;;;;5014795;28;20207;-89
2024/01/17 06:12:01;;;;;;;2.67;2.10;;;1.20;99.90;;;;;;4998443;28;20620;-90
2024/01/17 06:14:27;;;;;;;1.77;1.67;;;1.10;99.90;;;;;;4998321;28;20183;-93
2024/01/17 06:16:53;;;;;;;1.33;1.23;;;1.20;99.90;;;;;;5016687;28;20479;-92
2024/01/17 06:19:19;;;;;;;1.20;1.20;;;1.20;99.90;;;;;;5014394;28;20214;-89
2024/01/17 06:21:45;;;;;;;0.57;0.57;;;1.20;99.90;;;;;;4998497;28;20249;-89
2024/01/17 06:24:11;;;;;;;4.97;4.60;;;1.10;99.90;;;;;;4998996;28;20623;-90
2024/01/17 06:26:36;;;;;;;1.70;1.60;;;1.10;99.90;;;;;;5014702;28;20241;-89
2024/01/17 06:29:05;;;;;;;4.53;4.13;;;1.20;99.90;;;;;;5015343;28;20184;-90
2024/01/17 06:31:34;;;;;;;2.20;2.10;;;1.10;99.90;;;;;;5015136;28;20180;-89
2024/01/17 06:34:01;;;;;;;1.30;1.30;;;1.10;99.90;;;;;;4999037;28;20266;-89
2024/01/17 06:36:29;;;;;;;1.53;1.43;;;0.90;99.90;;;;;;5015083;28;20210;-90
2024/01/17 06:38:55;;;;;;;2.40;2.30;;;1.00;99.90;;;;;;5014487;28;20743;-89
2024/01/17 06:41:21;;;;;;;1.53;1.47;;;1.00;99.90;;;;;;4999248;28;20206;-90
2024/01/17 06:43:50;;;;;;;2.43;2.07;;;1.00;99.90;;;;;;4998362;28;20554;-89
2024/01/17 06:46:23;;;;;;;1.10;1.10;;;0.80;99.90;;;;;;5014449;28;20171;-90
2024/01/17 06:48:49;;;;;;;1.83;1.73;;;0.80;99.90;;;;;;5015697;28;20233;-91
2024/01/17 06:51:15;;;;;;;2.07;1.80;;;0.90;99.90;;;;;;5016000;28;20587;-90
2024/01/17 06:53:40;;;;;;;2.50;2.33;;;0.90;99.90;;;;;;4999509;28;20191;-89
2024/01/17 06:56:09;;;;;;;1.87;1.47;;;0.90;99.90;;;;;;5005630;28;20187;-91
2024/01/17 06:58:34;;;;;;;2.30;2.20;;;0.90;99.90;;;;;;5021115;28;20208;-91
2024/01/17 07:01:02;;;;;;;1.90;1.87;;;0.80;99.90;;;;;;5006450;28;20717;-89
2024/01/17 07:03:27;;;;;;;0.90;0.90;;;0.90;99.90;;;;;;5017253;28;20246;-89
2024/01/17 07:05:53;;;;;;;2.23;1.30;;;0.90;99.90;;;;;;5015971;28;20628;-90
2024/01/17 07:08:22;;;;;;;4.90;2.83;;;0.80;99.90;;;;;;4998337;28;20183;-87
2024/01/17 07:10:48;;;;;;;3.17;2.53;;;0.80;99.90;;;;;;5019017;28;20179;-86
2024/01/17 07:13:13;;;;;;;2.73;2.63;;;0.70;99.90;;;;;;5021202;28;20186;-89
2024/01/17 07:15:39;;;;;;;3.00;2.83;;;0.60;99.90;;;;;;5028421;28;20268;-88
2024/01/17 07:18:05;;;;;;;2.40;2.30;;;0.80;99.90;;;;;;5021984;28;20187;-87
2024/01/17 07:20:31;;;;;;;2.07;1.97;;;0.80;99.90;;;;;;5015653;28;20617;-90
2024/01/17 07:22:56;;;;;;;3.73;1.90;;;0.70;99.90;;;;;;4998915;28;20626;-89
2024/01/17 07:25:23;;;;;;;2.70;2.47;;;0.60;99.90;;;;;;5014781;28;20179;-89
2024/01/17 07:27:49;;;;;;;1.47;1.43;;;0.80;99.90;;;;;;5013701;28;20254;-91
2024/01/17 07:30:15;;;;;;;2.00;1.80;;;0.70;99.90;;;;;;4997385;28;20265;-87
2024/01/17 07:32:41;;;;;;;2.17;2.07;;;0.70;99.90;;;;;;5014493;28;20179;-89
2024/01/17 07:35:07;;;;;;;1.47;1.37;;;0.90;99.90;;;;;;4996717;28;20253;-87
2024/01/17 07:37:35;;;;;;;0.67;0.67;;;1.00;99.90;;;;;;5012799;28;20186;-87
2024/01/17 07:40:01;;;;;;;4.10;2.37;;;0.80;99.90;;;;;;5012546;28;20211;-87
2024/01/17 07:42:27;;;;;;;1.50;1.50;;;0.90;99.90;;;;;;5012552;28;20184;-89
2024/01/17 07:44:53;;;;;;;2.07;1.60;;;0.90;99.90;;;;;;4996409;28;20634;-87
2024/01/17 07:47:18;;;;;;;1.87;1.53;;;1.00;99.90;;;;;;5012655;28;20183;-87
2024/01/17 07:49:47;;;;;;;1.43;1.40;;;0.90;99.90;;;;;;4995844;28;20188;-89
2024/01/17 07:52:14;;;;;;;3.13;1.47;;;0.90;99.90;;;;;;4995757;28;20635;-87
2024/01/17 07:54:40;;;;;;;2.73;2.50;;;1.00;99.90;;;;;;4995867;28;20230;-86
2024/01/17 07:57:12;;;;;;;2.77;2.30;;;1.00;99.90;;;;;;5014918;28;20171;-85
2024/01/17 07:59:38;;;;;;;1.47;1.37;;;0.80;99.90;;;;;;5048716;28;20682;-87
2024/01/17 08:02:06;;;;;;;4.37;4.00;;;0.90;99.90;;;;;;5017239;28;20219;-85
2024/01/17 08:04:32;;;;;;;1.47;1.37;;;0.90;99.90;;;;;;4999481;28;20284;-87
2024/01/17 08:06:58;;;;;;;1.07;1.07;;;0.90;99.90;;;;;;5015291;28;20615;-85
2024/01/17 08:09:26;;;;;;;1.00;1.00;;;0.90;99.90;;;;;;5015130;28;20246;-88
2024/01/17 08:11:54;;;;;;;3.60;1.57;;;1.10;99.90;;;;;;4999473;28;20179;-87
2024/01/17 08:14:23;;;;;;;1.50;1.40;;;1.10;99.90;;;;;;5015497;28;20191;-87
2024/01/17 08:16:51;;;;;;;1.33;1.30;;;1.10;99.90;;;;;;5016635;28;20242;-87
2024/01/17 08:19:17;;;;;;;2.57;1.60;;;1.20;99.90;;;;;;4999454;28;20741;-87
2024/01/17 08:21:47;;;;;;;0.83;0.83;;;1.10;99.90;;;;;;5015176;28;20184;-88
2024/01/17 08:24:15;;;;;;;2.73;2.63;;;1.20;99.90;;;;;;4998813;28;20207;-86
2024/01/17 08:26:44;;;;;;;1.17;1.17;;;1.20;99.90;;;;;;4998919;28;20274;-87
2024/01/17 08:29:10;;;;;;;1.40;1.30;;;1.10;99.90;;;;;;5015193;28;20277;-86
2024/01/17 08:31:36;;;;;;;2.07;1.93;;;1.10;99.90;;;;;;5014614;28;20187;-86
2024/01/17 08:34:03;;;;;;;1.13;1.13;;;1.10;99.90;;;;;;5015064;28;20180;-87
2024/01/17 08:36:32;;;;;;;4.53;4.23;;;1.10;99.90;;;;;;4998655;28;20607;-87
2024/01/17 08:38:58;;;;;;;4.97;1.73;;;1.20;99.90;;;;;;4998666;28;20254;-86
2024/01/17 08:41:24;;;;;;;12.40;1.63;;;1.20;99.90;;;;;;5015271;28;20191;-87
2024/01/17 08:43:49;;;;;;;1.10;0.90;;;1.20;99.90;;;;;;4998750;28;20632;-86
2024/01/17 08:46:19;;;;;;;1.63;1.57;;;1.30;99.90;;;;;;4999245;28;20191;-87
2024/01/17 08:48:45;;;;;;;3.17;1.70;;;1.10;99.90;;;;;;5017434;28;20612;-87
2024/01/17 08:51:11;;;;;;;1.67;1.57;;;1.20;99.90;;;;;;5037022;28;20179;-87
2024/01/17 08:53:37;;;;;;;0.93;0.93;;;1.20;99.90;;;;;;5014485;28;20222;-88
2024/01/17 08:56:05;;;;;;;1.50;1.47;;;1.20;99.90;;;;;;5014410;28;20178;-87
2024/01/17 08:58:33;;;;;;;2.43;2.13;;;1.30;99.90;;;;;;5015696;28;20214;-85
2024/01/17 09:01:02;;;;;;;1.97;1.73;;;1.30;99.90;;;;;;5014238;28;20591;-88
2024/01/17 09:03:29;;;;;;;3.70;2.93;;;1.30;99.90;;;;;;5014067;28;20219;-88
2024/01/17 09:05:57;;;;;;;1.27;1.17;;;1.40;99.90;;;;;;5015437;28;20196;-87
2024/01/17 09:08:23;;;;;;;2.47;1.50;;;1.40;99.90;;;;;;4996809;28;20199;-86
2024/01/17 09:10:51;;;;;;;1.20;1.13;;;1.40;99.90;;;;;;5015621;28;20222;-86
2024/01/17 09:13:17;;;;;;;1.77;1.30;;;1.50;99.90;;;;;;4997845;28;20543;-87
2024/01/17 09:15:46;;;;;;;1.30;1.27;;;1.40;99.90;;;;;;5014400;28;20266;-87
2024/01/17 09:18:12;;;;;;;2.07;1.67;;;1.50;99.90;;;;;;4998300;28;20212;-88
2024/01/17 09:20:37;;;;;;;1.73;1.63;;;1.50;99.90;;;;;;5014062;28;20203;-86
2024/01/17 09:23:03;;;;;;;0.60;0.60;;;1.50;99.90;;;;;;5014166;28;20225;-85
2024/01/17 09:25:29;;;;;;;1.83;1.70;;;1.60;99.90;;;;;;4997911;28;20230;-85
2024/01/17 09:27:58;;;;;;;2.27;2.17;;;1.60;99.90;;;;;;4997713;28;20187;-86
2024/01/17 09:30:24;;;;;;;2.50;2.40;;;1.60;99.90;;;;;;5014630;28;20266;-86
2024/01/17 09:32:50;;;;;;;2.10;2.00;;;1.60;99.90;;;;;;5013788;28;20222;-86
2024/01/17 09:35:16;;;;;;;0.93;0.80;;;1.70;99.90;;;;;;5013566;28;20616;-86
2024/01/17 09:37:43;;;;;;;2.10;1.90;;;1.70;99.90;;;;;;4997263;28;20183;-87
2024/01/17 09:40:10;;;;;;;1.83;1.57;;;1.60;99.90;;;;;;5014128;28;20281;-86
2024/01/17 09:42:36;;;;;;;2.97;2.77;;;1.60;99.90;;;;;;5013708;28;20187;-87
2024/01/17 09:45:02;;;;;;;1.07;1.07;;;1.70;99.90;;;;;;4997752;28;20543;-87
2024/01/17 09:47:36;;;;;;;1.27;1.20;;;1.70;99.90;;;;;;4997548;28;20183;-87
2024/01/17 09:50:02;;;;;;;1.60;1.50;;;1.70;99.90;;;;;;5013657;28;20183;-87
2024/01/17 09:52:33;;;;;;;1.47;1.47;;;1.60;99.90;;;;;;5013906;28;20182;-88
2024/01/17 09:55:01;;;;;;;1.03;1.03;;;1.60;99.90;;;;;;5013335;28;20180;-87
2024/01/17 09:57:34;;;;;;;1.53;1.43;;;1.70;99.90;;;;;;5013632;28;20228;-87
2024/01/17 10:00:08;;;;;;;1.67;1.57;;;1.70;99.90;;;;;;5013501;28;20208;-88
2024/01/17 10:02:36;;;;;;;1.57;1.47;;;1.70;99.90;;;;;;5014424;28;20669;-86
2024/01/17 10:05:09;;;;;;;2.10;1.93;;;1.80;99.90;;;;;;5013500;28;20183;-87
2024/01/17 10:07:36;;;;;;;1.77;1.67;;;1.70;99.90;;;;;;5013631;28;20167;-87
2024/01/17 10:10:07;;;;;;;1.30;1.20;;;1.70;99.90;;;;;;5013644;28;20168;-86
2024/01/17 10:12:33;;;;;;;1.90;1.70;;;1.80;99.90;;;;;;5013156;28;20189;-86
2024/01/17 10:15:05;;;;;;;1.53;1.43;;;1.70;99.90;;;;;;4996813;28;20183;-86
2024/01/17 10:17:34;;;;;;;5.10;2.33;;;1.70;99.90;;;;;;5014832;28;20176;-86
2024/01/17 10:20:00;;;;;;;1.93;1.83;;;1.80;99.90;;;;;;5013813;28;20208;-87
2024/01/17 10:22:26;;;;;;;3.00;2.50;;;1.60;99.90;;;;;;5014087;28;20254;-86
2024/01/17 10:24:52;;;;;;;1.50;1.43;;;1.70;99.90;;;;;;4996746;28;20191;-85
2024/01/17 10:27:18;;;;;;;1.67;1.53;;;1.70;99.90;;;;;;4996759;28;20184;-86
2024/01/17 10:29:44;;;;;;;3.40;3.10;;;1.80;99.90;;;;;;5013363;28;20187;-87
2024/01/17 10:32:10;;;;;;;1.00;1.00;;;1.70;99.90;;;;;;4996648;28;20267;-85
2024/01/17 10:34:38;;;;;;;1.33;1.30;;;1.80;99.90;;;;;;5012789;28;20622;-87
2024/01/17 10:37:05;;;;;;;2.00;1.90;;;1.70;99.90;;;;;;5013029;28;20192;-87
2024/01/17 10:39:31;;;;;;;2.47;2.37;;;1.60;99.90;;;;;;5013895;28;20250;-85
2024/01/17 10:41:59;;;;;;;1.23;1.23;;;1.80;99.90;;;;;;4995944;28;20184;-86
2024/01/17 10:44:28;;;;;;;0.80;0.80;;;1.90;99.90;;;;;;5012848;28;20358;-87
2024/01/17 10:46:55;;;;;;;3.40;3.13;;;1.80;99.90;;;;;;5013895;28;20183;-87
2024/01/17 10:49:22;;;;;;;0.93;0.93;;;1.90;99.90;;;;;;4996362;28;20183;-87
2024/01/17 10:52:19;;;;;;;1.60;1.50;;;1.90;99.90;;;;;;5012827;28;20230;-87
2024/01/17 10:55:04;;;;;;;1.43;1.43;;;1.90;99.90;;;;;;5040864;28;20198;-87
2024/01/17 10:57:35;;;;;;;1.17;1.17;;;2.00;99.90;;;;;;4998850;28;20166;-89
2024/01/17 11:00:04;;;;;;;1.63;1.53;;;2.00;99.90;;;;;;5016610;28;20210;-88
2024/01/17 11:02:32;;;;;;;1.97;1.87;;;2.00;99.90;;;;;;5030548;28;20231;-87
2024/01/17 11:05:07;;;;;;;4.70;2.67;;;2.00;99.90;;;;;;5013503;28;20214;-86
2024/01/17 11:07:35;;;;;;;1.40;1.30;;;1.90;99.90;;;;;;5012177;28;20221;-87
2024/01/17 11:10:09;;;;;;;7.63;2.40;;;2.10;99.90;;;;;;5012402;28;20185;-87
2024/01/17 11:12:39;;;;;;;2.97;1.40;;;2.10;99.90;;;;;;5012358;28;20180;-85
2024/01/17 11:15:06;;;;;;;1.20;1.20;;;2.20;99.90;;;;;;5012345;28;20258;-85
2024/01/17 11:17:36;;;;;;;3.13;2.93;;;2.20;99.90;;;;;;5012830;28;20602;-85
2024/01/17 11:20:10;;;;;;;2.53;2.43;;;2.20;99.90;;;;;;5012421;28;20699;-86
2024/01/17 11:22:37;;;;;;;2.13;2.03;;;2.30;99.90;;;;;;5012426;28;20279;-85
2024/01/17 11:25:32;;;;;;;3.10;3.00;;;2.20;99.90;;;;;;5012546;28;20176;-88
2024/01/17 11:28:09;;;;;;;2.00;1.77;;;2.30;99.90;;;;;;5012361;28;20172;-88
2024/01/17 11:30:54;;;;;;;2.17;2.07;;;2.30;99.90;;;;;;5013365;28;20616;-87
2024/01/17 11:33:20;;;;;;;1.00;1.00;;;2.40;99.90;;;;;;5016022;28;20214;-85
2024/01/17 11:35:50;;;;;;;2.43;1.80;;;2.40;99.90;;;;;;5017292;28;20177;-85
2024/01/17 11:38:22;;;;;;;1.57;1.57;;;2.40;99.90;;;;;;4999958;28;20172;-85
2024/01/17 11:40:55;;;;;;;2.37;2.27;;;2.50;99.90;;;;;;5016681;28;20615;-87
2024/01/17 11:43:31;;;;;;;1.73;1.63;;;2.40;99.90;;;;;;5015929;28;20164;-87
2024/01/17 11:46:02;;;;;;;1.03;1.03;;;2.40;99.90;;;;;;5016429;28;20527;-87
2024/01/17 11:48:35;;;;;;;2.50;1.13;;;2.20;99.90;;;;;;5016555;28;20250;-87
2024/01/17 11:51:01;;;;;;;1.63;1.53;;;2.30;99.90;;;;;;4999890;28;20190;-87
2024/01/17 11:53:28;;;;;;;1.80;1.70;;;2.50;99.90;;;;;;5015421;28;20187;-87
2024/01/17 11:55:59;;;;;;;1.83;1.73;;;2.60;99.90;;;;;;4999541;28;20181;-87
2024/01/17 11:58:47;;;;;;;2.27;2.17;;;2.70;99.90;;;;;;5015620;28;20167;-86
2024/01/17 12:01:22;;;;;;;4.73;2.60;;;2.40;99.90;;;;;;5015517;28;20229;-87
2024/01/17 12:03:48;;;;;;;0.77;0.77;;;2.50;99.90;;;;;;5016623;28;20253;-86
2024/01/17 12:06:21;;;;;;;1.27;1.27;;;2.60;99.90;;;;;;5015599;28;20196;-87
2024/01/17 12:08:49;;;;;;;1.80;1.77;;;2.60;99.90;;;;;;5015299;28;20179;-87
2024/01/17 12:11:15;;;;;;;1.40;1.30;;;2.70;99.90;;;;;;5016439;28;20180;-87
2024/01/17 12:13:41;;;;;;;2.40;2.30;;;2.90;99.90;;;;;;5015426;28;20654;-87
2024/01/17 12:16:11;;;;;;;2.23;2.13;;;2.90;99.90;;;;;;5015037;28;20550;-87
2024/01/17 12:18:37;;;;;;;2.27;2.07;;;2.90;99.90;;;;;;5014855;28;22171;-87
2024/01/17 12:21:04;;;;;;;0.77;0.77;;;3.00;99.90;;;;;;5015160;28;20611;-89
2024/01/17 12:23:32;;;;;;;2.10;1.93;;;2.70;99.90;;;;;;5016066;28;20175;-87
2024/01/17 12:26:00;;;;;;;1.47;1.47;;;2.80;99.90;;;;;;5014735;28;20214;-88
2024/01/17 12:28:28;;;;;;;1.40;1.30;;;2.80;99.90;;;;;;5014978;28;20200;-87
2024/01/17 12:31:01;;;;;;;2.70;2.03;;;2.80;99.90;;;;;;5014638;28;20187;-87
2024/01/17 12:33:29;;;;;;;1.10;1.10;;;2.90;99.90;;;;;;5015067;28;20226;-88
2024/01/17 12:35:57;;;;;;;1.67;1.57;;;2.90;99.90;;;;;;5015216;28;20187;-88
2024/01/17 12:38:25;;;;;;;5.20;2.67;;;2.80;99.90;;;;;;5014822;28;20175;-86
2024/01/17 12:40:53;;;;;;;12.80;2.33;;;2.90;99.90;;;;;;5014944;28;20188;-87
2024/01/17 12:43:21;;;;;;;2.83;2.47;;;2.80;99.90;;;;;;5015499;28;20186;-87
2024/01/17 12:45:54;;;;;;;1.60;1.50;;;2.70;99.90;;;;;;5016084;28;20171;-86
2024/01/17 12:48:20;;;;;;;4.00;2.17;;;2.80;99.90;;;;;;5015383;28;20175;-86
2024/01/17 12:50:54;;;;;;;4.70;3.43;;;2.90;99.90;;;;;;5015241;28;20182;-87
2024/01/17 12:53:26;;;;;;;2.70;2.50;;;2.60;99.90;;;;;;5015377;28;20182;-86
2024/01/17 12:55:54;;;;;;;1.77;1.67;;;2.60;99.90;;;;;;5015690;28;20233;-84
2024/01/17 12:58:23;;;;;;;1.40;1.30;;;2.80;99.90;;;;;;5014708;28;20172;-86
2024/01/17 13:00:49;;;;;;;2.30;2.20;;;2.80;99.90;;;;;;5015968;28;20692;-90